Time;durP1;ratioP1;P1;durP2;ratioP2;P2;SDS_P1;SDS_P2;PMS_P1;PMS_P2;Temp;Humidity;BMP_temperature;BMP_pressure;BME280_temperature;BME280_humidity;BME280_pressure;Samples;Min_cycle;Max_cycle;Signal;HPM_P1;HPM_P2
2022/10/19 00:00:06;;;;;;;7.57;4.10;;;9.80;99.90;;;;;;2091065;28;20064;-72
2022/10/19 00:01:09;;;;;;;10.88;4.07;;;9.80;99.90;;;;;;2091500;28;20503;-72
2022/10/19 00:02:10;;;;;;;9.32;4.63;;;9.70;99.90;;;;;;2091300;28;20017;-72
2022/10/19 00:03:10;;;;;;;6.45;3.38;;;9.70;99.90;;;;;;2090338;28;20025;-72
2022/10/19 00:04:11;;;;;;;8.65;3.75;;;9.70;99.90;;;;;;2089486;28;20024;-72
2022/10/19 00:05:11;;;;;;;7.95;3.60;;;9.70;99.90;;;;;;2091471;28;20021;-72
2022/10/19 00:06:13;;;;;;;10.40;4.00;;;9.70;99.90;;;;;;2090936;28;20044;-72
2022/10/19 00:07:14;;;;;;;8.82;4.07;;;9.70;99.90;;;;;;2092865;28;20025;-72
2022/10/19 00:08:14;;;;;;;6.40;4.10;;;9.70;99.90;;;;;;2091627;28;20111;-72
2022/10/19 00:09:18;;;;;;;7.28;3.88;;;9.70;99.90;;;;;;2089801;28;21307;-72
2022/10/19 00:10:18;;;;;;;8.32;3.83;;;9.70;99.90;;;;;;2092350;28;20917;-72
2022/10/19 00:11:19;;;;;;;6.85;3.60;;;9.70;99.90;;;;;;2091145;28;20486;-72
2022/10/19 00:12:20;;;;;;;10.25;4.85;;;9.70;99.90;;;;;;2091852;28;20074;-72
2022/10/19 00:13:20;;;;;;;10.05;4.35;;;9.60;99.90;;;;;;2089459;28;20020;-72
2022/10/19 00:14:22;;;;;;;7.93;4.70;;;9.70;99.90;;;;;;2091517;28;20016;-72
2022/10/19 00:15:23;;;;;;;9.00;4.57;;;9.60;99.90;;;;;;2089385;28;20469;-72
2022/10/19 00:16:26;;;;;;;9.20;3.85;;;9.60;99.90;;;;;;2091066;28;20072;-72
2022/10/19 00:17:27;;;;;;;8.43;4.72;;;9.60;99.90;;;;;;2091854;28;20064;-72
2022/10/19 00:18:27;;;;;;;7.63;4.18;;;9.60;99.90;;;;;;2091254;28;20029;-72
2022/10/19 00:19:28;;;;;;;10.20;4.60;;;9.60;99.90;;;;;;2091185;28;20109;-72
2022/10/19 00:20:28;;;;;;;10.23;5.00;;;9.60;99.90;;;;;;2090816;28;20380;-72
2022/10/19 00:21:29;;;;;;;7.38;3.60;;;9.60;99.90;;;;;;2089882;28;20715;-72
2022/10/19 00:22:30;;;;;;;10.48;4.32;;;9.50;99.90;;;;;;2090021;28;20021;-72
2022/10/19 00:23:31;;;;;;;9.50;4.40;;;9.50;99.90;;;;;;2092008;28;20476;-72
2022/10/19 00:24:31;;;;;;;5.85;4.13;;;9.50;99.90;;;;;;2091469;28;20025;-72
2022/10/19 00:25:32;;;;;;;5.65;3.88;;;9.50;99.90;;;;;;2088329;28;20454;-72
2022/10/19 00:26:33;;;;;;;7.65;4.97;;;9.50;99.90;;;;;;2090851;28;20119;-72
2022/10/19 00:27:34;;;;;;;10.75;4.80;;;9.50;99.90;;;;;;2089668;28;20082;-72
2022/10/19 00:28:35;;;;;;;10.60;4.40;;;9.50;99.90;;;;;;2091235;28;20074;-72
2022/10/19 00:29:36;;;;;;;6.18;3.92;;;9.50;99.90;;;;;;2088333;28;20036;-72
2022/10/19 00:30:37;;;;;;;8.68;3.83;;;9.50;99.90;;;;;;2089624;28;20036;-72
2022/10/19 00:31:38;;;;;;;9.18;4.50;;;9.40;99.90;;;;;;2089115;28;20039;-72
2022/10/19 00:32:39;;;;;;;8.82;4.38;;;9.50;99.90;;;;;;2089090;28;20029;-72
2022/10/19 00:33:40;;;;;;;8.48;4.00;;;9.50;99.90;;;;;;2089692;28;20024;-72
2022/10/19 00:34:41;;;;;;;8.60;4.38;;;9.50;99.90;;;;;;2090892;28;20048;-72
2022/10/19 00:35:42;;;;;;;8.35;4.25;;;9.40;99.90;;;;;;2090203;28;20061;-72
2022/10/19 00:36:43;;;;;;;7.40;4.13;;;9.50;99.90;;;;;;2090233;28;20723;-72
2022/10/19 00:37:44;;;;;;;6.28;3.50;;;9.40;99.90;;;;;;2092743;28;20059;-72
2022/10/19 00:38:45;;;;;;;6.40;4.10;;;9.40;99.90;;;;;;2089748;28;20487;-72
2022/10/19 00:39:45;;;;;;;7.97;3.80;;;9.40;99.90;;;;;;2089813;28;20096;-72
2022/10/19 00:40:46;;;;;;;9.18;3.95;;;9.40;99.90;;;;;;2089368;28;20024;-72
2022/10/19 00:41:47;;;;;;;7.45;4.50;;;9.40;99.90;;;;;;2089848;28;20043;-72
2022/10/19 00:42:54;;;;;;;9.82;4.45;;;9.40;99.90;;;;;;2089777;28;20032;-72
2022/10/19 00:43:57;;;;;;;8.82;3.67;;;9.40;99.90;;;;;;2090417;28;20021;-72
2022/10/19 00:45:03;;;;;;;12.07;4.68;;;9.40;99.90;;;;;;2091515;28;20029;-72
2022/10/19 00:46:04;;;;;;;10.85;4.32;;;9.40;99.90;;;;;;2089646;28;20029;-72
2022/10/19 00:47:07;;;;;;;8.05;4.35;;;9.30;99.90;;;;;;2089587;28;20079;-72
2022/10/19 00:48:09;;;;;;;7.72;4.25;;;9.30;99.90;;;;;;2092340;28;20105;-72
2022/10/19 00:49:16;;;;;;;10.25;4.68;;;9.30;99.90;;;;;;2089245;28;20452;-72
2022/10/19 00:50:17;;;;;;;6.68;4.78;;;9.30;99.90;;;;;;2090752;28;20041;-72
2022/10/19 00:51:18;;;;;;;8.45;3.95;;;9.30;99.90;;;;;;2090813;28;20055;-72
2022/10/19 00:52:21;;;;;;;7.25;5.13;;;9.20;99.90;;;;;;2088871;28;20044;-72
2022/10/19 00:53:24;;;;;;;8.88;3.90;;;9.20;99.90;;;;;;2090978;28;20025;-72
2022/10/19 00:54:25;;;;;;;8.73;3.92;;;9.30;99.90;;;;;;2089939;28;20047;-72
2022/10/19 00:55:26;;;;;;;10.23;4.28;;;9.20;99.90;;;;;;2089381;28;20214;-72
2022/10/19 00:56:26;;;;;;;8.85;3.95;;;9.20;99.90;;;;;;2092132;28;20025;-72
2022/10/19 00:57:29;;;;;;;6.68;4.05;;;9.20;99.90;;;;;;2091888;28;20017;-72
2022/10/19 00:58:30;;;;;;;11.30;4.80;;;9.20;99.90;;;;;;2089261;28;20041;-72
2022/10/19 00:59:31;;;;;;;9.55;4.30;;;9.20;99.90;;;;;;2090265;28;20017;-72
2022/10/19 01:00:33;;;;;;;8.23;4.22;;;9.20;99.90;;;;;;2090018;28;20013;-73
2022/10/19 01:01:34;;;;;;;8.93;4.25;;;9.20;99.90;;;;;;2089815;28;20032;-73
2022/10/19 01:02:35;;;;;;;10.32;4.95;;;9.20;99.90;;;;;;2089195;28;20060;-74
2022/10/19 01:03:36;;;;;;;8.55;4.20;;;9.20;99.90;;;;;;2089132;28;20067;-73
2022/10/19 01:04:39;;;;;;;7.35;4.35;;;9.10;99.90;;;;;;2090044;28;20024;-73
2022/10/19 01:05:40;;;;;;;9.43;4.13;;;9.20;99.90;;;;;;2088209;28;20031;-73
2022/10/19 01:06:41;;;;;;;9.23;4.20;;;9.10;99.90;;;;;;2092164;28;20021;-72
2022/10/19 01:07:42;;;;;;;9.43;4.45;;;9.10;99.90;;;;;;2089149;28;20047;-73
2022/10/19 01:08:42;;;;;;;8.80;4.47;;;9.10;99.90;;;;;;2090331;28;20029;-73
2022/10/19 01:09:43;;;;;;;7.97;4.03;;;9.10;99.90;;;;;;2090075;28;20119;-73
2022/10/19 01:11:13;;;;;;;6.32;4.28;;;9.10;99.90;;;;;;2089401;28;20452;-73
2022/10/19 01:12:54;;;;;;;6.95;4.43;;;9.10;99.90;;;;;;2087317;28;20029;-73
2022/10/19 01:13:54;;;;;;;8.70;4.10;;;9.00;99.90;;;;;;2091132;28;20097;-73
2022/10/19 01:15:20;;;;;;;6.65;4.43;;;9.00;99.90;;;;;;2088758;28;20036;-73
2022/10/19 01:16:33;;;;;;;9.77;5.10;;;9.00;99.90;;;;;;2088392;28;20574;-73
2022/10/19 01:17:52;;;;;;;10.90;4.72;;;9.00;99.90;;;;;;2091046;28;20032;-73
2022/10/19 01:19:32;;;;;;;8.73;4.68;;;8.90;99.90;;;;;;2090059;28;20063;-73
2022/10/19 01:20:55;;;;;;;8.10;4.43;;;8.90;99.90;;;;;;2089309;28;20024;-73
2022/10/19 01:22:18;;;;;;;6.78;4.63;;;8.90;99.90;;;;;;2089316;28;20025;-73
2022/10/19 01:23:24;;;;;;;7.00;4.47;;;8.90;99.90;;;;;;2089117;28;20543;-73
2022/10/19 01:24:35;;;;;;;8.15;4.75;;;8.80;99.90;;;;;;2089814;28;20544;-73
2022/10/19 01:26:00;;;;;;;6.10;4.20;;;8.90;99.90;;;;;;2090530;28;20040;-73
2022/10/19 01:27:41;;;;;;;5.57;4.10;;;8.80;99.90;;;;;;2089700;28;20017;-73
2022/10/19 01:29:04;;;;;;;8.52;4.82;;;8.80;99.90;;;;;;2091094;28;20149;-73
2022/10/19 01:30:06;;;;;;;6.05;4.25;;;8.80;99.90;;;;;;2091428;28;20492;-73
2022/10/19 01:31:28;;;;;;;9.55;4.43;;;8.80;99.90;;;;;;2090277;28;20025;-72
2022/10/19 01:32:37;;;;;;;5.65;4.25;;;8.80;99.90;;;;;;2091983;28;20033;-73
2022/10/19 01:33:43;;;;;;;12.38;4.60;;;8.80;99.90;;;;;;2089909;28;20021;-73
2022/10/19 01:34:48;;;;;;;7.50;4.25;;;8.80;99.90;;;;;;2091247;28;20044;-73
2022/10/19 01:36:04;;;;;;;8.75;4.45;;;8.80;99.90;;;;;;2090432;28;20093;-73
2022/10/19 01:37:25;;;;;;;7.30;4.70;;;8.80;99.90;;;;;;2091498;28;20054;-73
2022/10/19 01:39:00;;;;;;;7.55;4.00;;;8.70;99.90;;;;;;2091055;28;20782;-73
2022/10/19 01:40:26;;;;;;;8.00;4.53;;;8.70;99.90;;;;;;2067271;28;20730;-73
2022/10/19 01:41:49;;;;;;;5.80;3.97;;;8.70;99.90;;;;;;2090374;28;20405;-73
2022/10/19 01:42:55;;;;;;;7.50;4.45;;;8.70;99.90;;;;;;2088054;28;20019;-73
2022/10/19 01:44:12;;;;;;;6.18;4.05;;;8.70;99.90;;;;;;2088501;28;20435;-73
2022/10/19 01:45:26;;;;;;;7.63;4.50;;;8.60;99.90;;;;;;2090195;28;20048;-72
2022/10/19 01:46:33;;;;;;;8.63;4.20;;;8.60;99.90;;;;;;2091988;28;20424;-73
2022/10/19 01:47:59;;;;;;;5.80;4.20;;;8.60;99.90;;;;;;2090280;28;20027;-73
2022/10/19 01:49:10;;;;;;;5.68;4.10;;;8.60;99.90;;;;;;2090343;28;20123;-73
2022/10/19 01:50:14;;;;;;;;;;;8.60;99.90;;;;;;2090708;28;20119;-73
2022/10/19 01:51:25;;;;;;;9.02;4.70;;;8.50;99.90;;;;;;2089111;28;19995;-73
2022/10/19 01:52:27;;;;;;;6.28;4.28;;;8.50;99.90;;;;;;2092171;28;20029;-73
2022/10/19 01:53:31;;;;;;;9.95;4.68;;;8.50;99.90;;;;;;2092493;28;20035;-73
2022/10/19 01:54:38;;;;;;;7.65;3.92;;;8.50;99.90;;;;;;2091211;28;20056;-73
2022/10/19 01:55:41;;;;;;;7.03;3.75;;;8.60;99.90;;;;;;2091911;28;20054;-73
2022/10/19 01:56:45;;;;;;;6.18;3.92;;;8.60;99.90;;;;;;2088558;28;20418;-73
2022/10/19 01:57:49;;;;;;;8.77;4.00;;;8.50;99.90;;;;;;2092155;28;20035;-73
2022/10/19 01:58:52;;;;;;;6.47;3.95;;;8.50;99.90;;;;;;2089100;28;20120;-73
2022/10/19 01:59:54;;;;;;;7.93;3.95;;;8.50;99.90;;;;;;2090744;28;20217;-73
2022/10/19 02:00:58;;;;;;;6.97;4.07;;;8.50;99.90;;;;;;2090857;28;20032;-73
2022/10/19 02:02:01;;;;;;;6.65;3.78;;;8.50;99.90;;;;;;2090438;28;20021;-73
2022/10/19 02:03:04;;;;;;;8.73;4.30;;;8.50;99.90;;;;;;2088458;28;20016;-73
2022/10/19 02:04:05;;;;;;;6.93;4.05;;;8.50;99.90;;;;;;2088871;28;20361;-72
2022/10/19 02:05:07;;;;;;;6.68;3.67;;;8.50;99.90;;;;;;2090404;28;20497;-73
2022/10/19 02:06:09;;;;;;;8.23;3.97;;;8.50;99.90;;;;;;2088715;28;20447;-73
2022/10/19 02:07:11;;;;;;;6.13;3.97;;;8.50;99.90;;;;;;2090534;28;20013;-72
2022/10/19 02:08:16;;;;;;;7.28;3.63;;;8.50;99.90;;;;;;2090843;28;20710;-73
2022/10/19 02:09:17;;;;;;;6.60;3.63;;;8.50;99.90;;;;;;2088703;28;20025;-73
2022/10/19 02:10:19;;;;;;;6.28;3.90;;;8.50;99.90;;;;;;2090014;28;20029;-73
2022/10/19 02:11:21;;;;;;;6.85;3.63;;;8.50;99.90;;;;;;2089952;28;20116;-73
2022/10/19 02:12:23;;;;;;;5.72;3.50;;;8.50;99.90;;;;;;2091193;28;20461;-73
2022/10/19 02:13:27;;;;;;;7.22;4.18;;;8.40;99.90;;;;;;2089280;28;20761;-73
2022/10/19 02:14:33;;;;;;;6.78;4.47;;;8.40;99.90;;;;;;2090892;28;20124;-73
2022/10/19 02:15:38;;;;;;;5.28;3.60;;;8.40;99.90;;;;;;2093269;28;20020;-73
2022/10/19 02:16:45;;;;;;;9.63;4.30;;;8.40;99.90;;;;;;2090369;28;20028;-73
2022/10/19 02:17:50;;;;;;;5.50;3.65;;;8.40;99.90;;;;;;2090293;28;20021;-73
2022/10/19 02:18:52;;;;;;;7.85;3.90;;;8.40;99.90;;;;;;2093451;28;20025;-73
2022/10/19 02:19:53;;;;;;;4.82;3.53;;;8.40;99.90;;;;;;2092573;28;20435;-73
2022/10/19 02:20:54;;;;;;;6.32;3.88;;;8.40;99.90;;;;;;2090437;28;20112;-73
2022/10/19 02:21:55;;;;;;;7.95;4.15;;;8.40;99.90;;;;;;2091008;28;20032;-72
2022/10/19 02:22:56;;;;;;;14.45;3.90;;;8.40;99.90;;;;;;2090888;28;20044;-73
2022/10/19 02:23:56;;;;;;;7.25;4.00;;;8.40;99.90;;;;;;2091266;28;20574;-73
2022/10/19 02:24:57;;;;;;;8.20;3.53;;;8.40;99.90;;;;;;2091399;28;20017;-73
2022/10/19 02:25:58;;;;;;;5.70;3.72;;;8.40;99.90;;;;;;2092239;28;20028;-73
2022/10/19 02:27:00;;;;;;;7.55;3.90;;;8.40;99.90;;;;;;2091160;28;20106;-73
2022/10/19 02:28:04;;;;;;;7.75;3.40;;;8.40;99.90;;;;;;2091399;28;20687;-73
2022/10/19 02:29:04;;;;;;;4.65;3.58;;;8.30;99.90;;;;;;2090686;28;20037;-73
2022/10/19 02:30:06;;;;;;;5.60;4.13;;;8.30;99.90;;;;;;2090466;28;20025;-73
2022/10/19 02:31:07;;;;;;;6.05;3.67;;;8.30;99.90;;;;;;2090779;28;20120;-73
2022/10/19 02:32:09;;;;;;;5.32;3.50;;;8.30;99.90;;;;;;2091248;28;20488;-72
2022/10/19 02:33:11;;;;;;;7.18;4.13;;;8.30;99.90;;;;;;2091282;28;20630;-73
2022/10/19 02:34:12;;;;;;;6.70;4.28;;;8.30;99.90;;;;;;2093078;28;20645;-73
2022/10/19 02:35:13;;;;;;;6.38;3.63;;;8.30;99.90;;;;;;2090594;28;20021;-73
2022/10/19 02:36:14;;;;;;;7.75;4.38;;;8.30;99.90;;;;;;2091042;28;20235;-72
2022/10/19 02:37:15;;;;;;;7.78;4.05;;;8.30;99.90;;;;;;2090797;28;20024;-73
2022/10/19 02:38:20;;;;;;;7.03;4.15;;;8.30;99.90;;;;;;2090599;28;20029;-73
2022/10/19 02:39:21;;;;;;;7.25;4.00;;;8.30;99.90;;;;;;2091608;28;20562;-73
2022/10/19 02:40:22;;;;;;;3.67;3.25;;;8.30;99.90;;;;;;2089727;28;20527;-73
2022/10/19 02:41:33;;;;;;;8.18;4.00;;;8.30;99.90;;;;;;2092230;28;20025;-73
2022/10/19 02:43:03;;;;;;;4.57;3.55;;;8.30;99.90;;;;;;2092315;28;20597;-72
2022/10/19 02:44:06;;;;;;;;;;;8.20;99.90;;;;;;2092968;28;20045;-73
2022/10/19 02:45:15;;;;;;;6.28;3.88;;;8.10;99.90;;;;;;2091778;28;19934;-73
2022/10/19 02:46:26;;;;;;;7.93;3.67;;;8.20;99.90;;;;;;2090962;28;20017;-73
2022/10/19 02:47:37;;;;;;;7.63;3.90;;;8.20;99.90;;;;;;2090456;28;20401;-73
2022/10/19 02:48:40;;;;;;;6.32;3.90;;;8.20;99.90;;;;;;2091807;28;20029;-73
2022/10/19 02:49:42;;;;;;;8.68;3.65;;;8.20;99.90;;;;;;2092645;28;20052;-73
2022/10/19 02:50:43;;;;;;;6.15;3.75;;;8.10;99.90;;;;;;2090284;28;20113;-73
2022/10/19 02:52:02;;;;;;;5.60;3.30;;;8.20;99.90;;;;;;2091525;28;20058;-72
2022/10/19 02:53:03;;;;;;;7.93;4.00;;;8.20;99.90;;;;;;2090788;28;20040;-73
2022/10/19 02:54:06;;;;;;;6.55;4.25;;;8.20;99.90;;;;;;2091548;28;20554;-73
2022/10/19 02:55:07;;;;;;;4.88;3.60;;;8.10;99.90;;;;;;2090226;28;20510;-73
2022/10/19 02:56:08;;;;;;;6.85;3.60;;;8.10;99.90;;;;;;2092468;28;20024;-73
2022/10/19 02:57:17;;;;;;;4.28;3.40;;;8.20;99.90;;;;;;2091559;28;20480;-74
2022/10/19 02:58:18;;;;;;;6.45;4.18;;;8.10;99.90;;;;;;2090397;28;20059;-73
2022/10/19 02:59:19;;;;;;;7.97;3.90;;;8.10;99.90;;;;;;2090169;28;20026;-73
2022/10/19 03:00:19;;;;;;;6.63;3.63;;;8.10;99.90;;;;;;2092230;28;20024;-73
2022/10/19 03:01:20;;;;;;;8.73;4.18;;;8.10;99.90;;;;;;2093029;28;20422;-73
2022/10/19 03:02:20;;;;;;;9.98;3.90;;;8.10;99.90;;;;;;2091385;28;20425;-73
2022/10/19 03:03:21;;;;;;;4.72;3.50;;;8.10;99.90;;;;;;2090766;28;20136;-73
2022/10/19 03:04:21;;;;;;;10.18;3.72;;;8.10;99.90;;;;;;2091352;28;20491;-73
2022/10/19 03:05:22;;;;;;;4.10;3.00;;;8.10;99.90;;;;;;2092881;28;20718;-77
2022/10/19 03:06:22;;;;;;;3.97;2.97;;;8.10;99.90;;;;;;2092148;28;20029;-73
2022/10/19 03:07:23;;;;;;;4.00;3.30;;;8.10;99.90;;;;;;2092278;28;20028;-73
2022/10/19 03:08:23;;;;;;;7.65;3.38;;;8.10;99.90;;;;;;2091227;28;20025;-73
2022/10/19 03:09:24;;;;;;;5.38;3.38;;;8.10;99.90;;;;;;2090544;28;20110;-72
2022/10/19 03:10:24;;;;;;;4.13;3.28;;;8.00;99.90;;;;;;2090581;28;20033;-73
2022/10/19 03:11:25;;;;;;;5.90;3.53;;;8.00;99.90;;;;;;2091442;28;20036;-73
2022/10/19 03:12:25;;;;;;;5.38;3.80;;;8.00;99.90;;;;;;2091133;28;20719;-72
2022/10/19 03:13:26;;;;;;;8.18;3.53;;;8.00;99.90;;;;;;2090992;28;20663;-73
2022/10/19 03:14:26;;;;;;;5.80;4.05;;;8.00;99.90;;;;;;2090906;28;20024;-73
2022/10/19 03:15:28;;;;;;;4.88;3.28;;;8.00;99.90;;;;;;2090700;28;20049;-73
2022/10/19 03:16:29;;;;;;;6.32;3.45;;;8.00;99.90;;;;;;2092432;28;20035;-73
2022/10/19 03:17:29;;;;;;;6.72;3.35;;;8.00;99.90;;;;;;2093177;28;20028;-73
2022/10/19 03:18:30;;;;;;;5.70;3.50;;;8.00;99.90;;;;;;2092058;28;20170;-73
2022/10/19 03:19:31;;;;;;;5.38;3.85;;;8.00;99.90;;;;;;2090198;28;20108;-73
2022/10/19 03:20:31;;;;;;;6.70;3.25;;;8.00;99.90;;;;;;2083245;28;20064;-73
2022/10/19 03:21:33;;;;;;;4.68;3.05;;;8.00;99.90;;;;;;2086492;28;20511;-73
2022/10/19 03:22:34;;;;;;;5.80;3.53;;;8.00;99.90;;;;;;2088870;28;20099;-73
2022/10/19 03:23:35;;;;;;;5.68;3.30;;;8.00;99.90;;;;;;2089977;28;20031;-72
2022/10/19 03:24:35;;;;;;;6.65;3.85;;;8.00;99.90;;;;;;2092451;28;20055;-73
2022/10/19 03:25:36;;;;;;;4.25;3.17;;;8.00;99.90;;;;;;2091503;28;20028;-72
2022/10/19 03:26:36;;;;;;;6.40;3.13;;;7.90;99.90;;;;;;2091689;28;20446;-73
2022/10/19 03:27:37;;;;;;;4.45;3.58;;;7.90;99.90;;;;;;2091706;28;20531;-73
2022/10/19 03:28:38;;;;;;;6.90;3.78;;;7.90;99.90;;;;;;2090772;28;20498;-73
2022/10/19 03:29:38;;;;;;;4.75;3.45;;;7.90;99.90;;;;;;2094045;28;20415;-73
2022/10/19 03:30:39;;;;;;;6.85;3.53;;;7.90;99.90;;;;;;2092039;28;20036;-72
2022/10/19 03:31:39;;;;;;;4.93;2.97;;;7.90;99.90;;;;;;2090868;28;20036;-73
2022/10/19 03:32:40;;;;;;;6.53;3.67;;;7.90;99.90;;;;;;2091564;28;20048;-73
2022/10/19 03:33:40;;;;;;;6.03;3.45;;;7.90;99.90;;;;;;2089598;28;20052;-73
2022/10/19 03:34:41;;;;;;;4.93;3.22;;;7.90;99.90;;;;;;2089733;28;20024;-73
2022/10/19 03:35:41;;;;;;;4.28;2.90;;;7.90;99.90;;;;;;2090671;28;20037;-73
2022/10/19 03:36:42;;;;;;;8.50;3.20;;;7.90;99.90;;;;;;2091450;28;20021;-72
2022/10/19 03:37:42;;;;;;;6.53;3.35;;;7.90;99.90;;;;;;2091211;28;20075;-73
2022/10/19 03:38:43;;;;;;;6.45;3.17;;;7.90;99.90;;;;;;2091441;28;20035;-73
2022/10/19 03:39:43;;;;;;;3.92;3.17;;;7.90;99.90;;;;;;2091077;28;20383;-73
2022/10/19 03:40:44;;;;;;;4.68;3.00;;;7.90;99.90;;;;;;2090746;28;20058;-72
2022/10/19 03:41:45;;;;;;;5.22;2.97;;;7.90;99.90;;;;;;2090698;28;20499;-73
2022/10/19 03:42:45;;;;;;;6.45;3.47;;;7.90;99.90;;;;;;2092085;28;20029;-73
2022/10/19 03:43:46;;;;;;;6.53;3.78;;;7.80;99.90;;;;;;2091482;28;20031;-73
2022/10/19 03:44:46;;;;;;;3.83;3.35;;;7.80;99.90;;;;;;2092299;28;20872;-73
2022/10/19 03:45:47;;;;;;;6.50;3.55;;;7.90;99.90;;;;;;2091552;28;20380;-73
2022/10/19 03:46:47;;;;;;;5.93;2.72;;;7.80;99.90;;;;;;2090567;28;20411;-73
2022/10/19 03:47:49;;;;;;;5.22;3.13;;;7.80;99.90;;;;;;2091523;28;20365;-73
2022/10/19 03:48:49;;;;;;;4.95;3.20;;;7.80;99.90;;;;;;2090363;28;20111;-73
2022/10/19 03:49:50;;;;;;;4.78;3.35;;;7.80;99.90;;;;;;2089258;28;20025;-73
2022/10/19 03:51:06;;;;;;;8.77;3.67;;;7.80;99.90;;;;;;2092675;28;20028;-73
2022/10/19 03:52:08;;;;;;;5.60;3.55;;;7.80;99.90;;;;;;2091598;28;20099;-73
2022/10/19 03:53:09;;;;;;;5.47;3.35;;;7.80;99.90;;;;;;2092084;28;20025;-73
2022/10/19 03:54:14;;;;;;;5.55;3.70;;;7.80;99.90;;;;;;2091857;28;20052;-73
2022/10/19 03:55:16;;;;;;;5.40;2.83;;;7.80;99.90;;;;;;2087963;28;20475;-73
2022/10/19 03:56:19;;;;;;;7.35;3.42;;;7.80;99.90;;;;;;2090494;28;20040;-73
2022/10/19 03:57:20;;;;;;;5.05;2.92;;;7.80;99.90;;;;;;2091282;28;20925;-73
2022/10/19 03:58:20;;;;;;;5.30;3.60;;;7.80;99.90;;;;;;2090751;28;20082;-72
2022/10/19 03:59:21;;;;;;;5.90;3.40;;;7.70;99.90;;;;;;2093978;28;20480;-73
2022/10/19 04:00:22;;;;;;;7.00;3.42;;;7.70;99.90;;;;;;2090412;28;20163;-73
2022/10/19 04:01:45;;;;;;;6.20;3.33;;;7.70;99.90;;;;;;2090595;28;20067;-73
2022/10/19 04:02:45;;;;;;;6.05;3.30;;;7.80;99.90;;;;;;2092396;28;20047;-73
2022/10/19 04:03:46;;;;;;;6.60;3.45;;;7.70;99.90;;;;;;2090770;28;20017;-73
2022/10/19 04:04:47;;;;;;;4.00;3.15;;;7.70;99.90;;;;;;2092622;28;20112;-72
2022/10/19 04:05:47;;;;;;;5.40;3.42;;;7.70;99.90;;;;;;2085678;28;20055;-73
2022/10/19 04:06:49;;;;;;;4.50;3.03;;;7.70;99.90;;;;;;2089184;28;20034;-73
2022/10/19 04:07:50;;;;;;;3.83;3.08;;;7.70;99.90;;;;;;2091056;28;20500;-73
2022/10/19 04:08:51;;;;;;;6.82;3.20;;;7.70;99.90;;;;;;2089963;28;20041;-73
2022/10/19 04:09:52;;;;;;;4.35;3.28;;;7.70;99.90;;;;;;2091744;28;20029;-73
2022/10/19 04:11:04;;;;;;;9.75;3.40;;;7.70;99.90;;;;;;2091199;28;20035;-73
2022/10/19 04:12:05;;;;;;;8.48;3.60;;;7.70;99.90;;;;;;2090885;28;20044;-73
2022/10/19 04:13:05;;;;;;;6.60;4.20;;;7.70;99.90;;;;;;2091092;28;20109;-73
2022/10/19 04:14:06;;;;;;;5.25;3.30;;;7.70;99.90;;;;;;2091499;28;20124;-73
2022/10/19 04:15:07;;;;;;;6.93;3.35;;;7.70;99.90;;;;;;2089853;28;20495;-73
2022/10/19 04:16:09;;;;;;;6.97;3.50;;;7.70;99.90;;;;;;2089946;28;20024;-73
2022/10/19 04:17:10;;;;;;;7.78;3.60;;;7.70;99.90;;;;;;2090155;28;20029;-73
2022/10/19 04:18:10;;;;;;;7.55;3.70;;;7.70;99.90;;;;;;2091221;28;20116;-73
2022/10/19 04:19:15;;;;;;;5.35;3.60;;;7.70;99.90;;;;;;2089494;28;20033;-73
2022/10/19 04:20:15;;;;;;;6.22;3.67;;;7.70;99.90;;;;;;2091885;28;20029;-73
2022/10/19 04:21:30;;;;;;;6.05;3.55;;;7.70;99.90;;;;;;2091385;28;20055;-73
2022/10/19 04:22:31;;;;;;;4.43;3.38;;;7.70;99.90;;;;;;2091926;28;20028;-73
2022/10/19 04:23:34;;;;;;;4.07;3.30;;;7.70;99.90;;;;;;2091926;28;20475;-73
2022/10/19 04:24:35;;;;;;;7.18;3.70;;;7.70;99.90;;;;;;2089986;28;20032;-73
2022/10/19 04:25:35;;;;;;;7.28;4.38;;;7.70;99.90;;;;;;2089403;28;20029;-73
2022/10/19 04:26:46;;;;;;;6.50;4.18;;;7.70;99.90;;;;;;2091934;28;20118;-73
2022/10/19 04:27:46;;;;;;;5.05;3.65;;;7.70;99.90;;;;;;2091792;28;20032;-72
2022/10/19 04:28:47;;;;;;;4.80;3.05;;;7.70;99.90;;;;;;2090779;28;20560;-73
2022/10/19 04:29:48;;;;;;;6.05;3.92;;;7.60;99.90;;;;;;2090220;28;20051;-73
2022/10/19 04:30:48;;;;;;;5.28;3.80;;;7.70;99.90;;;;;;2090101;28;20033;-73
2022/10/19 04:31:50;;;;;;;9.65;4.13;;;7.60;99.90;;;;;;2092132;28;20123;-73
2022/10/19 04:32:51;;;;;;;6.82;3.15;;;7.60;99.90;;;;;;2090009;28;20500;-73
2022/10/19 04:33:51;;;;;;;5.50;3.50;;;7.60;99.90;;;;;;2092331;28;20106;-73
2022/10/19 04:34:52;;;;;;;6.40;3.50;;;7.60;99.90;;;;;;2090353;28;20380;-73
2022/10/19 04:35:59;;;;;;;6.82;4.10;;;7.60;99.90;;;;;;2091381;28;20039;-73
2022/10/19 04:37:00;;;;;;;5.03;3.33;;;7.60;99.90;;;;;;2087187;28;20033;-73
2022/10/19 04:38:00;;;;;;;6.10;3.80;;;7.60;99.90;;;;;;2093194;28;20040;-73
2022/10/19 04:39:01;;;;;;;5.38;4.05;;;7.60;99.90;;;;;;2091611;28;20124;-73
2022/10/19 04:40:04;;;;;;;5.03;3.53;;;7.60;99.90;;;;;;2090160;28;20480;-73
2022/10/19 04:41:11;;;;;;;9.80;4.30;;;7.60;99.90;;;;;;2089418;28;20028;-73
2022/10/19 04:42:12;;;;;;;5.75;4.35;;;7.60;99.90;;;;;;2091020;28;20016;-73
2022/10/19 04:43:12;;;;;;;4.63;2.97;;;7.60;99.90;;;;;;2090953;28;20025;-73
2022/10/19 04:44:14;;;;;;;5.65;3.60;;;7.60;99.90;;;;;;2090402;28;20025;-72
2022/10/19 04:45:14;;;;;;;5.68;4.10;;;7.60;99.90;;;;;;2092587;28;20032;-73
2022/10/19 04:46:17;;;;;;;9.43;4.90;;;7.60;99.90;;;;;;2089835;28;20078;-73
2022/10/19 04:47:18;;;;;;;8.23;4.78;;;7.60;99.90;;;;;;2090675;28;20044;-73
2022/10/19 04:48:18;;;;;;;14.02;7.88;;;7.60;99.90;;;;;;2091031;28;20017;-73
2022/10/19 04:49:19;;;;;;;15.15;11.20;;;7.60;99.90;;;;;;2089805;28;20527;-73
2022/10/19 04:50:19;;;;;;;20.40;11.77;;;7.60;99.90;;;;;;2091111;28;20098;-73
2022/10/19 04:51:21;;;;;;;22.98;13.50;;;7.60;99.90;;;;;;2090018;28;20033;-73
2022/10/19 04:52:22;;;;;;;22.40;14.55;;;7.70;99.90;;;;;;2089742;28;20059;-73
2022/10/19 04:53:23;;;;;;;24.95;15.38;;;7.70;99.90;;;;;;2089582;28;20803;-73
2022/10/19 04:54:24;;;;;;;32.63;17.23;;;7.70;99.90;;;;;;2085516;28;20694;-72
2022/10/19 04:55:24;;;;;;;28.65;15.52;;;7.70;99.90;;;;;;2093728;28;20763;-73
2022/10/19 04:56:26;;;;;;;35.90;19.48;;;7.80;99.90;;;;;;2091243;28;20040;-73
2022/10/19 04:57:26;;;;;;;42.55;20.25;;;7.80;99.90;;;;;;2091019;28;20477;-73
2022/10/19 04:58:27;;;;;;;40.80;20.17;;;7.90;99.90;;;;;;2090424;28;20404;-73
2022/10/19 04:59:27;;;;;;;40.40;20.50;;;7.90;99.90;;;;;;2090092;28;20025;-73
2022/10/19 05:00:28;;;;;;;37.75;20.15;;;7.90;99.90;;;;;;2085782;28;20469;-73
2022/10/19 05:01:29;;;;;;;44.85;19.88;;;8.00;99.90;;;;;;2090264;28;20658;-73
2022/10/19 05:02:30;;;;;;;38.97;19.45;;;8.00;99.90;;;;;;2091063;28;20028;-73
2022/10/19 05:03:30;;;;;;;35.67;17.60;;;8.10;99.90;;;;;;2091086;28;20024;-72
2022/10/19 05:04:31;;;;;;;35.45;18.10;;;8.10;99.90;;;;;;2090633;28;20484;-73
2022/10/19 05:05:33;;;;;;;31.05;17.35;;;8.20;99.90;;;;;;2092825;28;20032;-73
2022/10/19 05:06:33;;;;;;;32.97;16.80;;;8.20;99.90;;;;;;2090769;28;20028;-73
2022/10/19 05:07:34;;;;;;;32.85;17.55;;;8.30;99.90;;;;;;2092273;28;20103;-73
2022/10/19 05:08:35;;;;;;;29.38;15.75;;;8.30;99.90;;;;;;2089523;28;20657;-73
2022/10/19 05:09:39;;;;;;;30.55;15.98;;;8.30;99.90;;;;;;2088994;28;20433;-73
2022/10/19 05:10:39;;;;;;;26.65;14.57;;;8.40;99.90;;;;;;2090420;28;20532;-73
2022/10/19 05:11:40;;;;;;;27.75;14.50;;;8.40;99.90;;;;;;2091637;28;20503;-73
2022/10/19 05:12:40;;;;;;;25.90;15.10;;;8.40;99.90;;;;;;2090813;28;20024;-73
2022/10/19 05:13:42;;;;;;;22.98;14.88;;;8.40;99.90;;;;;;2087948;28;20107;-73
2022/10/19 05:14:42;;;;;;;25.33;14.57;;;8.50;99.90;;;;;;2090087;28;20072;-73
2022/10/19 05:15:43;;;;;;;23.85;14.77;;;8.50;99.90;;;;;;2091229;28;20024;-73
2022/10/19 05:16:43;;;;;;;25.20;15.57;;;8.50;99.90;;;;;;2087603;28;20033;-73
2022/10/19 05:17:44;;;;;;;25.27;14.73;;;8.50;99.90;;;;;;2090311;28;20079;-73
2022/10/19 05:18:54;;;;;;;23.38;16.00;;;8.60;99.90;;;;;;2090512;28;20044;-73
2022/10/19 05:19:56;;;;;;;24.90;14.70;;;8.60;99.90;;;;;;2092104;28;20040;-73
2022/10/19 05:21:04;;;;;;;19.55;14.60;;;8.60;99.90;;;;;;2091501;28;20902;-73
2022/10/19 05:22:05;;;;;;;22.00;14.05;;;8.60;99.90;;;;;;2091939;28;20032;-73
2022/10/19 05:23:05;;;;;;;26.52;15.18;;;8.70;99.90;;;;;;2089842;28;20025;-73
2022/10/19 05:24:06;;;;;;;28.77;16.10;;;8.70;99.90;;;;;;2089262;28;20017;-73
2022/10/19 05:25:07;;;;;;;32.08;16.30;;;8.70;99.90;;;;;;2089561;28;20028;-73
2022/10/19 05:26:13;;;;;;;25.80;14.82;;;8.70;99.90;;;;;;2087838;28;20025;-72
2022/10/19 05:27:13;;;;;;;22.23;13.55;;;8.70;99.90;;;;;;2090034;28;20419;-73
2022/10/19 05:28:14;;;;;;;20.23;13.05;;;8.70;99.90;;;;;;2089221;28;20106;-73
2022/10/19 05:29:14;;;;;;;21.30;12.45;;;8.70;99.90;;;;;;2088480;28;20043;-72
2022/10/19 05:30:15;;;;;;;26.27;13.57;;;8.80;99.90;;;;;;2090092;28;20504;-72
2022/10/19 05:31:18;;;;;;;25.13;12.70;;;8.80;99.90;;;;;;2089361;28;20107;-73
2022/10/19 05:32:19;;;;;;;24.23;12.45;;;8.80;99.90;;;;;;2089425;28;20029;-73
2022/10/19 05:33:19;;;;;;;20.98;12.05;;;8.80;99.90;;;;;;2090154;28;20041;-73